createdAt,value
2022-10-30T00:00:38.721Z,55.6
2022-10-30T00:03:05.357Z,55.4
2022-10-30T00:05:30.481Z,55.5
2022-10-30T00:07:57.097Z,55.7
2022-10-30T00:10:23.729Z,55.9
2022-10-30T00:12:50.342Z,55.9
2022-10-30T00:15:16.977Z,55.9
2022-10-30T00:17:43.633Z,55.8
2022-10-30T00:20:10.264Z,55.8
2022-10-30T00:22:36.843Z,55.5
2022-10-30T00:25:03.474Z,54.9
2022-10-30T00:27:30.092Z,55
2022-10-30T00:29:56.710Z,55.2
2022-10-30T00:32:23.399Z,55.2
2022-10-30T00:34:49.957Z,55.2
2022-10-30T00:37:15.123Z,55.2
2022-10-30T00:39:41.715Z,55.4
2022-10-30T00:42:08.329Z,55.6
2022-10-30T00:44:34.948Z,55.7
2022-10-30T00:47:01.568Z,56
2022-10-30T00:49:28.182Z,56.2
2022-10-30T00:51:54.849Z,56.2
2022-10-30T00:54:21.508Z,56.2
2022-10-30T00:56:48.087Z,56.1
2022-10-30T00:59:14.713Z,56
2022-10-30T01:01:41.299Z,56.1
2022-10-30T01:04:07.953Z,56
2022-10-30T01:06:34.573Z,56.1
2022-10-30T01:08:59.681Z,55.9
2022-10-30T01:11:26.361Z,55.2
2022-10-30T01:13:52.927Z,55.1
2022-10-30T01:16:19.549Z,55.2
2022-10-30T01:21:12.805Z,55.2
2022-10-30T01:23:39.422Z,55.3
2022-10-30T01:26:06.188Z,55.3
2022-10-30T01:28:32.660Z,55.4
2022-10-30T01:30:59.336Z,55.5
2022-10-30T01:33:25.908Z,55.7
2022-10-30T01:35:52.525Z,55.8
2022-10-30T01:38:19.155Z,55.8
2022-10-30T01:40:44.296Z,55.5
2022-10-30T01:43:10.931Z,55.2
2022-10-30T01:45:37.541Z,54.8
2022-10-30T01:48:04.205Z,55.1
2022-10-30T01:50:30.821Z,55.4
2022-10-30T01:52:57.401Z,55.2
2022-10-30T01:55:24.018Z,54.9
2022-10-30T01:57:50.644Z,54.8
2022-10-30T02:00:17.292Z,54.8
2022-10-30T02:02:43.936Z,55
2022-10-30T02:05:10.509Z,55.1
2022-10-30T02:07:37.125Z,55.2
2022-10-30T02:10:03.753Z,55.6
2022-10-30T02:12:28.881Z,55.7
2022-10-30T02:14:55.509Z,55.8
2022-10-30T02:17:22.129Z,55.9
2022-10-30T02:19:48.754Z,55.8
2022-10-30T02:22:15.361Z,55.9
2022-10-30T02:24:41.995Z,55.9
2022-10-30T02:27:08.623Z,56
2022-10-30T02:29:35.231Z,56
2022-10-30T02:32:01.862Z,56.1
2022-10-30T02:34:28.468Z,56.2
2022-10-30T02:36:55.175Z,56.3
2022-10-30T02:39:21.729Z,56.4
2022-10-30T02:41:48.367Z,56.5
2022-10-30T02:44:13.497Z,56.3
2022-10-30T02:46:40.150Z,56.3
2022-10-30T02:49:06.730Z,56.3
2022-10-30T02:51:33.358Z,56.2
2022-10-30T02:53:59.960Z,56.1
2022-10-30T02:56:26.577Z,55.9
2022-10-30T02:58:53.211Z,55.7
2022-10-30T03:01:19.821Z,55.3
2022-10-30T03:03:46.456Z,55.2
2022-10-30T03:06:13.079Z,55.1
2022-10-30T03:08:39.713Z,55
2022-10-30T03:11:06.380Z,54.9
2022-10-30T03:13:32.953Z,54.9
2022-10-30T03:15:58.078Z,54.8
2022-10-30T03:18:24.714Z,54.8
2022-10-30T03:20:51.321Z,54.7
2022-10-30T03:23:17.956Z,54.7
2022-10-30T03:25:44.606Z,54.7
2022-10-30T03:28:11.195Z,54.8
2022-10-30T03:30:37.832Z,54.6
2022-10-30T03:33:04.444Z,54.7
2022-10-30T03:35:31.103Z,54.7
2022-10-30T03:37:57.679Z,54.8
2022-10-30T03:40:24.284Z,54.9
2022-10-30T03:42:50.911Z,54.9
2022-10-30T03:45:17.595Z,54.9
2022-10-30T03:47:42.678Z,55
2022-10-30T03:50:09.298Z,54.9
2022-10-30T03:52:35.950Z,54.8
2022-10-30T03:57:29.163Z,54.8
2022-10-30T03:59:55.879Z,55
2022-10-30T04:02:22.402Z,55.4
2022-10-30T04:04:49.025Z,55.6
2022-10-30T04:07:15.656Z,55.6
2022-10-30T04:09:42.298Z,55.6
2022-10-30T04:12:08.916Z,55.8
2022-10-30T04:14:35.599Z,55.9
2022-10-30T04:17:02.150Z,55.9
2022-10-30T04:19:28.777Z,55.9
2022-10-30T04:21:53.947Z,56
2022-10-30T04:26:47.193Z,56.1
2022-10-30T04:29:13.764Z,55.9
2022-10-30T04:31:40.440Z,55.7
2022-10-30T04:34:07.034Z,55.9
2022-10-30T04:36:33.635Z,56.2
2022-10-30T04:39:00.259Z,56.4
2022-10-30T04:41:26.908Z,56.7
2022-10-30T04:43:53.505Z,56.8
2022-10-30T04:46:20.139Z,56.9
2022-10-30T04:48:46.761Z,57
2022-10-30T04:51:13.465Z,56.9
2022-10-30T04:53:38.504Z,57
2022-10-30T04:56:05.143Z,57.4
2022-10-30T04:58:31.756Z,57.8
2022-10-30T05:00:58.378Z,58
2022-10-30T05:03:25.002Z,58
2022-10-30T05:05:51.687Z,57.6
2022-10-30T05:08:18.249Z,57.4
2022-10-30T05:10:44.858Z,57.3
2022-10-30T05:15:38.140Z,57
2022-10-30T05:18:04.742Z,57
2022-10-30T05:20:31.364Z,57
2022-10-30T05:22:58.007Z,57.1
2022-10-30T05:25:23.121Z,57.2
2022-10-30T05:27:49.784Z,57.3
2022-10-30T05:30:16.409Z,57
2022-10-30T05:32:42.980Z,57.1
2022-10-30T05:35:08.131Z,57.3
2022-10-30T05:37:34.738Z,57.4
2022-10-30T05:40:01.397Z,57.4
2022-10-30T05:42:27.984Z,57.5
2022-10-30T05:44:54.608Z,57.9
2022-10-30T05:47:21.237Z,57.9
2022-10-30T05:49:47.861Z,58.1
2022-10-30T05:52:14.504Z,58.1
2022-10-30T05:54:41.105Z,58.2
2022-10-30T05:57:07.783Z,58.2
2022-10-30T05:59:34.362Z,57.7
2022-10-30T06:02:00.977Z,57.5
2022-10-30T06:04:27.602Z,57.9
2022-10-30T06:06:52.786Z,58.2
2022-10-30T06:09:19.341Z,58.3
2022-10-30T06:11:45.964Z,58.3
2022-10-30T06:14:12.590Z,58.5
2022-10-30T06:16:39.213Z,58.2
2022-10-30T06:19:05.905Z,58.1
2022-10-30T06:21:32.507Z,57.8
2022-10-30T06:23:59.081Z,57.7
2022-10-30T06:26:25.705Z,57.6
2022-10-30T06:28:52.337Z,57.5
2022-10-30T06:31:18.957Z,57.4
2022-10-30T06:33:45.576Z,57.2
2022-10-30T06:36:12.244Z,57
2022-10-30T06:38:37.330Z,57
2022-10-30T06:41:03.954Z,56.9
2022-10-30T06:43:30.579Z,56.5
2022-10-30T06:45:57.193Z,56
2022-10-30T06:48:23.822Z,55.6
2022-10-30T06:50:50.438Z,55.3
2022-10-30T06:53:17.131Z,57.6
2022-10-30T06:55:43.687Z,62.2
2022-10-30T06:58:10.310Z,70.1
2022-10-30T07:00:36.931Z,90.8
2022-10-30T07:03:03.548Z,96.9
2022-10-30T07:05:30.187Z,100
2022-10-30T07:07:56.813Z,100
2022-10-30T07:10:21.933Z,100
2022-10-30T07:12:48.616Z,100
2022-10-30T07:15:15.176Z,100
2022-10-30T07:17:41.798Z,100
2022-10-30T07:20:08.464Z,98.9
2022-10-30T07:22:35.060Z,100
2022-10-30T07:25:01.667Z,99.5
2022-10-30T07:27:28.369Z,96.8
2022-10-30T07:29:54.908Z,92.5
2022-10-30T07:32:21.531Z,86.7
2022-10-30T07:37:14.846Z,88
2022-10-30T07:39:41.399Z,84.8
2022-10-30T07:42:06.534Z,85.9
2022-10-30T07:44:33.164Z,95.1
2022-10-30T07:46:59.823Z,99.9
2022-10-30T07:49:26.404Z,100
2022-10-30T07:51:53.044Z,100
2022-10-30T07:54:19.668Z,100
2022-10-30T07:56:46.267Z,100
2022-10-30T07:59:12.888Z,100
2022-10-30T08:01:39.564Z,99.6
2022-10-30T08:04:06.134Z,99.4
2022-10-30T08:06:32.785Z,95.5
2022-10-30T08:08:59.383Z,95.8
2022-10-30T08:11:26.014Z,88.7
2022-10-30T08:13:51.130Z,85.5
2022-10-30T08:16:17.822Z,81.2
2022-10-30T08:18:44.410Z,71.3
2022-10-30T08:21:11.009Z,71.2
2022-10-30T08:23:37.609Z,69.3
2022-10-30T08:26:04.271Z,69.8
2022-10-30T08:28:30.862Z,70.1
2022-10-30T08:30:57.484Z,71.4
2022-10-30T08:33:24.115Z,73.1
2022-10-30T08:35:50.731Z,67.5
2022-10-30T08:38:17.360Z,65.7
2022-10-30T08:40:44.007Z,65.7
2022-10-30T08:43:10.608Z,65
2022-10-30T08:45:35.753Z,65.1
2022-10-30T08:48:02.350Z,63.5
2022-10-30T08:50:28.988Z,63.8
2022-10-30T08:52:55.629Z,63
2022-10-30T08:55:22.222Z,63.2
2022-10-30T08:57:48.848Z,61.3
2022-10-30T09:00:15.488Z,61.5
2022-10-30T09:02:42.085Z,61.2
2022-10-30T09:05:08.725Z,60.9
2022-10-30T09:07:35.418Z,61.5
2022-10-30T09:10:02.003Z,61
2022-10-30T09:12:28.601Z,61.1
2022-10-30T09:14:55.234Z,61.6
2022-10-30T09:17:20.342Z,61.3
2022-10-30T09:19:47.020Z,60.2
2022-10-30T09:22:13.592Z,59
2022-10-30T09:24:40.218Z,59.3
2022-10-30T09:27:06.825Z,58.9
2022-10-30T09:29:33.469Z,58.1
2022-10-30T09:32:00.067Z,58.9
2022-10-30T09:34:26.683Z,61.1
2022-10-30T09:36:53.403Z,64.3
2022-10-30T09:39:19.941Z,68.2
2022-10-30T09:41:46.553Z,73.2
2022-10-30T09:44:13.176Z,75.7
2022-10-30T09:46:39.818Z,76.6
2022-10-30T09:49:04.975Z,79.6
2022-10-30T09:51:31.542Z,83.6
2022-10-30T09:53:58.178Z,79.5
2022-10-30T09:56:24.798Z,80.3
2022-10-30T09:58:51.416Z,80.5
2022-10-30T10:01:18.042Z,80.4
2022-10-30T10:03:44.657Z,81.3
2022-10-30T10:06:11.325Z,82
2022-10-30T10:08:37.917Z,78.5
2022-10-30T10:11:04.548Z,76.6
2022-10-30T10:13:31.166Z,79.5
2022-10-30T10:15:57.802Z,78.9
2022-10-30T10:18:24.465Z,79.7
2022-10-30T10:20:49.539Z,81.2
2022-10-30T10:23:16.193Z,76.8
2022-10-30T10:25:42.778Z,81.4
2022-10-30T10:28:09.399Z,78.7
2022-10-30T10:30:36.025Z,79.8
2022-10-30T10:33:02.630Z,74.8
2022-10-30T10:35:29.287Z,75.1
2022-10-30T10:37:55.889Z,71.8
2022-10-30T10:40:22.511Z,76.5
2022-10-30T10:42:49.198Z,74.9
2022-10-30T10:45:15.762Z,73.8
2022-10-30T10:47:42.395Z,72
2022-10-30T10:50:09.002Z,71.6
2022-10-30T10:52:34.153Z,71.3
2022-10-30T10:55:00.755Z,73.2
2022-10-30T10:57:27.442Z,70.7
2022-10-30T10:59:54.003Z,69.5
2022-10-30T11:02:20.646Z,71
2022-10-30T11:04:47.314Z,69.9
2022-10-30T11:07:13.943Z,70.6
2022-10-30T11:09:40.481Z,68.3
2022-10-30T11:12:07.131Z,70.4
2022-10-30T11:14:33.755Z,68.2
2022-10-30T11:17:00.360Z,70.2
2022-10-30T11:19:27.085Z,66.8
2022-10-30T11:21:53.632Z,65.9
2022-10-30T11:24:18.734Z,65.8
2022-10-30T11:26:45.425Z,68.8
2022-10-30T11:29:12.018Z,65.7
2022-10-30T11:31:38.607Z,64.4
2022-10-30T11:34:05.226Z,67.5
2022-10-30T11:36:31.846Z,66
2022-10-30T11:38:58.461Z,65.2
2022-10-30T11:41:25.122Z,64.8
2022-10-30T11:43:51.752Z,64.4
2022-10-30T11:46:18.327Z,63.5
2022-10-30T11:48:44.979Z,62.5
2022-10-30T11:51:11.580Z,63.1
2022-10-30T11:53:38.223Z,62.4
2022-10-30T11:56:03.341Z,63
2022-10-30T11:58:29.973Z,64.4
2022-10-30T12:00:56.570Z,63.7
2022-10-30T12:03:23.194Z,63.4
2022-10-30T12:05:49.821Z,63.6
2022-10-30T12:08:16.537Z,64.8
2022-10-30T12:10:42.644Z,65
2022-10-30T12:13:09.273Z,64.1
2022-10-30T12:15:35.898Z,62.9
2022-10-30T12:18:02.585Z,63
2022-10-30T12:20:29.131Z,62.5
2022-10-30T12:22:55.766Z,63.3
2022-10-30T12:25:22.401Z,64
2022-10-30T12:27:47.562Z,62.9
2022-10-30T12:30:14.233Z,64.8
2022-10-30T12:32:40.761Z,65.1
2022-10-30T12:35:07.440Z,66.7
2022-10-30T12:37:34.032Z,68.3
2022-10-30T12:40:00.747Z,65
2022-10-30T12:42:27.325Z,63.6
2022-10-30T12:44:53.975Z,63.3
2022-10-30T12:47:20.526Z,63.7
2022-10-30T12:49:47.145Z,64.4
2022-10-30T12:52:13.750Z,62.7
2022-10-30T12:54:40.371Z,61
2022-10-30T12:57:07.009Z,60.2
2022-10-30T12:59:32.127Z,61
2022-10-30T13:01:58.761Z,60.1
2022-10-30T13:04:25.379Z,60.5
2022-10-30T13:06:51.992Z,60.2
2022-10-30T13:09:18.664Z,64.4
2022-10-30T13:11:45.286Z,61
2022-10-30T13:14:11.858Z,63.8
2022-10-30T13:19:05.108Z,64.1
2022-10-30T13:21:31.755Z,64.8
2022-10-30T13:23:58.427Z,64.7
2022-10-30T13:26:24.985Z,66.6
2022-10-30T13:28:51.594Z,64.5
2022-10-30T13:33:44.841Z,73.7
2022-10-30T13:36:09.969Z,67.5
2022-10-30T13:38:36.578Z,67.4
2022-10-30T13:41:03.230Z,70.6
2022-10-30T13:43:29.884Z,71.6
2022-10-30T13:45:54.962Z,70.3
2022-10-30T13:48:21.595Z,69.7
2022-10-30T13:50:48.211Z,68.1
2022-10-30T13:53:14.835Z,68.7
2022-10-30T13:55:41.467Z,71.1
2022-10-30T13:58:08.131Z,73.4
2022-10-30T14:03:01.342Z,80.5
2022-10-30T14:05:26.456Z,84.3
2022-10-30T14:07:51.591Z,88.3
2022-10-30T14:10:18.202Z,88.8
2022-10-30T14:12:44.823Z,90.1
2022-10-30T14:15:11.516Z,87
2022-10-30T14:17:38.070Z,90.6
2022-10-30T14:20:04.687Z,88.8
2022-10-30T14:22:31.331Z,99
2022-10-30T14:24:57.940Z,99.3
2022-10-30T14:27:24.583Z,99.5
2022-10-30T14:29:51.228Z,99.5
2022-10-30T14:32:16.310Z,99.7
2022-10-30T14:34:41.444Z,99.7
2022-10-30T14:37:08.060Z,99.8
2022-10-30T14:39:34.675Z,99.4
2022-10-30T14:42:01.308Z,98.9
2022-10-30T14:44:27.942Z,98.5
2022-10-30T14:46:54.589Z,99
2022-10-30T14:49:21.197Z,99.8
2022-10-30T14:51:47.893Z,99.6
2022-10-30T14:54:14.467Z,98.5
2022-10-30T14:56:41.053Z,100
2022-10-30T14:59:07.680Z,100
2022-10-30T15:01:34.373Z,100
2022-10-30T15:04:00.911Z,100
2022-10-30T15:06:26.040Z,100
2022-10-30T15:08:52.674Z,100
2022-10-30T15:11:19.359Z,99.7
2022-10-30T15:13:45.991Z,99.2
2022-10-30T15:16:12.523Z,99.5
2022-10-30T15:18:39.150Z,99.6
2022-10-30T15:21:05.791Z,98.9
2022-10-30T15:23:32.429Z,98.5
2022-10-30T15:25:59.027Z,98
2022-10-30T15:28:25.696Z,97.1
2022-10-30T15:30:52.269Z,96
2022-10-30T15:33:18.889Z,95.6
2022-10-30T15:35:45.523Z,94.4
2022-10-30T15:38:10.651Z,94
2022-10-30T15:40:37.256Z,93.8
2022-10-30T15:43:03.889Z,93
2022-10-30T15:45:30.509Z,93.7
2022-10-30T15:47:57.134Z,95.9
2022-10-30T15:50:23.747Z,96.2
2022-10-30T15:52:50.369Z,97.1
2022-10-30T15:55:17.031Z,97.1
2022-10-30T15:57:43.616Z,97
2022-10-30T16:00:10.234Z,96.8
2022-10-30T16:02:36.865Z,96.9
2022-10-30T16:05:03.509Z,96.6
2022-10-30T16:07:30.106Z,96.2
2022-10-30T16:09:56.737Z,95.4
2022-10-30T16:12:21.881Z,93.9
2022-10-30T16:14:48.488Z,93.3
2022-10-30T16:17:15.106Z,94.1
2022-10-30T16:19:41.719Z,92.5
2022-10-30T16:22:08.356Z,89.9
2022-10-30T16:24:34.989Z,87.5
2022-10-30T16:27:01.636Z,85.9
2022-10-30T16:29:28.222Z,84.3
2022-10-30T16:31:54.852Z,84.9
2022-10-30T16:34:21.464Z,85.9
2022-10-30T16:36:48.123Z,87
2022-10-30T16:39:14.708Z,86.2
2022-10-30T16:41:41.351Z,84.4
2022-10-30T16:44:06.489Z,83.2
2022-10-30T16:46:33.190Z,81.6
2022-10-30T16:48:59.716Z,79.7
2022-10-30T16:51:26.392Z,79.9
2022-10-30T16:53:52.950Z,78.5
2022-10-30T16:56:19.617Z,79.3
2022-10-30T16:58:46.202Z,78.8
2022-10-30T17:01:12.873Z,76.1
2022-10-30T17:03:39.470Z,75.1
2022-10-30T17:06:06.080Z,77.5
2022-10-30T17:08:32.698Z,78.3
2022-10-30T17:10:59.309Z,79.1
2022-10-30T17:13:25.980Z,78.5
2022-10-30T17:15:52.560Z,77.5
2022-10-30T17:18:17.754Z,79.8
2022-10-30T17:20:44.304Z,77.7
2022-10-30T17:23:10.920Z,77.6
2022-10-30T17:25:37.552Z,74.6
2022-10-30T17:28:04.162Z,73.6
2022-10-30T17:30:30.791Z,74
2022-10-30T17:32:57.425Z,73.6
2022-10-30T17:35:24.047Z,73.2
2022-10-30T17:40:17.288Z,71.2
2022-10-30T17:42:43.907Z,72.9
2022-10-30T17:45:10.552Z,71.8
2022-10-30T17:47:37.154Z,70.1
2022-10-30T17:50:02.368Z,68.5
2022-10-30T17:52:28.907Z,67.7
2022-10-30T17:54:55.525Z,68
2022-10-30T17:57:22.175Z,68.7
2022-10-30T17:59:48.798Z,65.5
2022-10-30T18:02:15.457Z,65.3
2022-10-30T18:04:42.015Z,65.4
2022-10-30T18:07:08.631Z,66.9
2022-10-30T18:09:35.256Z,65.8
2022-10-30T18:12:01.911Z,65.6
2022-10-30T18:14:28.513Z,65.9
2022-10-30T18:16:55.130Z,65.5
2022-10-30T18:19:21.762Z,65.3
2022-10-30T18:21:46.882Z,64.9
2022-10-30T18:24:13.547Z,62.5
2022-10-30T18:26:40.185Z,62.2
2022-10-30T18:29:06.753Z,63.3
2022-10-30T18:31:33.378Z,65.3
2022-10-30T18:34:00.041Z,64.7
2022-10-30T18:36:26.623Z,65
2022-10-30T18:38:53.262Z,65.6
2022-10-30T18:41:19.892Z,66.3
2022-10-30T18:43:46.490Z,65.8
2022-10-30T18:46:13.121Z,67.1
2022-10-30T18:48:39.738Z,68.2
2022-10-30T18:51:06.348Z,66.6
2022-10-30T18:53:32.966Z,65.6
2022-10-30T18:55:58.093Z,65.5
2022-10-30T18:58:24.723Z,64.9
2022-10-30T19:00:51.343Z,64.5
2022-10-30T19:03:18.016Z,63.9
2022-10-30T19:05:44.596Z,64
2022-10-30T19:08:11.210Z,64.6
2022-10-30T19:10:37.833Z,64.6
2022-10-30T19:13:04.452Z,64
2022-10-30T19:17:57.703Z,61.3
2022-10-30T19:20:24.326Z,62
2022-10-30T19:22:51.056Z,60.5
2022-10-30T19:25:17.567Z,59.7
2022-10-30T19:27:42.727Z,60.2
2022-10-30T19:30:09.321Z,61
2022-10-30T19:32:35.940Z,60.8
2022-10-30T19:35:02.568Z,60.9
2022-10-30T19:37:29.188Z,60.8
2022-10-30T19:39:55.816Z,61.4
2022-10-30T19:42:22.435Z,61.7
2022-10-30T19:44:49.067Z,62.1
2022-10-30T19:47:15.676Z,61.7
2022-10-30T19:49:42.321Z,61.1
2022-10-30T19:52:08.925Z,60.9
2022-10-30T19:54:35.555Z,60.9
2022-10-30T19:57:02.174Z,61
2022-10-30T19:59:27.297Z,61.3
2022-10-30T20:01:53.959Z,61.5
2022-10-30T20:04:20.545Z,62
2022-10-30T20:06:47.165Z,62.5
2022-10-30T20:09:13.834Z,61.6
2022-10-30T20:11:40.404Z,61
2022-10-30T20:14:07.030Z,60.9
2022-10-30T20:16:33.657Z,60.5
2022-10-30T20:19:00.293Z,60.1
2022-10-30T20:21:26.950Z,59.8
2022-10-30T20:23:53.523Z,59.8
2022-10-30T20:26:20.158Z,59.8
2022-10-30T20:28:46.856Z,59.9
2022-10-30T20:31:11.921Z,59.2
2022-10-30T20:33:38.516Z,59.8
2022-10-30T20:36:05.204Z,59.4
2022-10-30T20:38:31.800Z,59.1
2022-10-30T20:40:58.386Z,56.7
2022-10-30T20:43:25.007Z,57.2
2022-10-30T20:45:51.640Z,57.1
2022-10-30T20:50:44.907Z,58.1
2022-10-30T20:53:11.504Z,58.5
2022-10-30T20:55:38.227Z,58.5
2022-10-30T20:58:04.803Z,58.5
2022-10-30T21:00:31.368Z,58.4
2022-10-30T21:02:56.508Z,58.2
2022-10-30T21:05:23.119Z,58.3
2022-10-30T21:07:49.794Z,58.3
2022-10-30T21:10:16.366Z,58.3
2022-10-30T21:12:43.164Z,58.4
2022-10-30T21:15:09.757Z,58.5
2022-10-30T21:17:36.367Z,58.7
2022-10-30T21:20:02.999Z,59.2
2022-10-30T21:22:29.626Z,59.1
2022-10-30T21:24:56.109Z,58.8
2022-10-30T21:27:22.876Z,58.6
2022-10-30T21:29:49.488Z,59.3
2022-10-30T21:32:15.972Z,59.2
2022-10-30T21:34:41.253Z,59.1
2022-10-30T21:37:07.721Z,59.2
2022-10-30T21:39:34.480Z,59.5
2022-10-30T21:42:00.959Z,59.6
2022-10-30T21:44:27.709Z,59.4
2022-10-30T21:46:54.235Z,59.2
2022-10-30T21:49:20.905Z,59.1
2022-10-30T21:51:47.510Z,59.2
2022-10-30T21:54:14.171Z,59.4
2022-10-30T21:56:39.282Z,59.5
2022-10-30T21:59:05.899Z,59.5
2022-10-30T22:01:32.472Z,59.5
2022-10-30T22:03:59.178Z,59.7
2022-10-30T22:06:25.842Z,59.9
2022-10-30T22:08:52.320Z,59.4
2022-10-30T22:11:19.029Z,59
2022-10-30T22:13:45.594Z,59.4
2022-10-30T22:16:12.299Z,59.7
2022-10-30T22:18:38.912Z,59.9
2022-10-30T22:21:05.465Z,60
2022-10-30T22:23:32.054Z,60.3
2022-10-30T22:25:58.697Z,60
2022-10-30T22:28:23.812Z,60.1
2022-10-30T22:30:50.477Z,60.1
2022-10-30T22:33:17.206Z,60.1
2022-10-30T22:35:43.678Z,59.9
2022-10-30T22:38:10.294Z,59.7
2022-10-30T22:40:36.929Z,59.8
2022-10-30T22:43:03.633Z,59.9
2022-10-30T22:45:30.264Z,59.8
2022-10-30T22:47:56.802Z,59.8
2022-10-30T22:50:23.486Z,59.7
2022-10-30T22:52:50.104Z,59.8
2022-10-30T22:55:16.658Z,59.8
2022-10-30T22:57:43.425Z,59.7
2022-10-30T23:00:08.427Z,59.7
2022-10-30T23:02:35.023Z,59.9
2022-10-30T23:05:01.722Z,60
2022-10-30T23:07:28.380Z,60.1
2022-10-30T23:09:54.938Z,60
2022-10-30T23:12:21.582Z,60.2
2022-10-30T23:14:48.234Z,60.4
2022-10-30T23:17:14.771Z,60.5
2022-10-30T23:19:41.396Z,60.5
2022-10-30T23:22:08.091Z,60.4
2022-10-30T23:24:34.634Z,60.3
2022-10-30T23:27:01.324Z,60.1
2022-10-30T23:29:27.998Z,60.4
2022-10-30T23:31:53.067Z,60.5
2022-10-30T23:34:19.798Z,60.6
2022-10-30T23:36:45.939Z,60.6
2022-10-30T23:39:12.569Z,60.8
2022-10-30T23:41:39.175Z,60.9
2022-10-30T23:44:05.750Z,60.9
2022-10-30T23:46:32.434Z,61
2022-10-30T23:48:58.952Z,61
2022-10-30T23:51:25.574Z,61
2022-10-30T23:53:52.229Z,61
2022-10-30T23:56:18.832Z,61
2022-10-30T23:58:45.482Z,61.1
